CSN973 RCTP-ZSPD
Flight info
| Callsign | CSN973 |
|---|---|
| Flight time | 1h 23m |
| Altitude | 35000 |
| Route | PIANO1C PIANO L3 VIOLA R596 SULEM/K0859S1100 R596 DST/K0867S1070 B221 SHZ W58 XSY |
| Aircraft | A320/M-SDE3FGHIRWY/LB1 |
Departure
| Time | 2026-05-06 13:47 |
|---|---|
| Airport | Taiwan Taoyuan International Airport (RCTP) |
Arrival
| Time | 2026-05-06 15:10 |
|---|---|
| Airport | Shanghai Pudong International Airport (ZSPD) |
| Time | Latitude | Longitude | Altitude | Speed | Heading |
|---|---|---|---|---|---|
| 2026-05-06 13:01 | 25.07388 | 121.23141 | 101 ft | 0 kts | 319° |
| 2026-05-06 13:33 | 25.07384 | 121.23144 | 101 ft | 3 kts | 319° |
| 2026-05-06 13:34 | 25.07364 | 121.23164 | 100 ft | 4 kts | 319° |
| 2026-05-06 13:34 | 25.07343 | 121.23183 | 99 ft | 4 kts | 319° |
| 2026-05-06 13:34 | 25.07324 | 121.23203 | 101 ft | 4 kts | 311° |
| 2026-05-06 13:34 | 25.07308 | 121.23227 | 100 ft | 4 kts | 293° |
| 2026-05-06 13:35 | 25.07304 | 121.23253 | 99 ft | 4 kts | 244° |
| 2026-05-06 13:35 | 25.07310 | 121.23263 | 99 ft | 1 kts | 229° |
| 2026-05-06 13:41 | 25.07301 | 121.23251 | 101 ft | 8 kts | 229° |
| 2026-05-06 13:41 | 25.07252 | 121.23191 | 101 ft | 10 kts | 223° |
| 2026-05-06 13:42 | 25.07194 | 121.23192 | 101 ft | 8 kts | 146° |
| 2026-05-06 13:42 | 25.07151 | 121.23231 | 99 ft | 8 kts | 137° |
| 2026-05-06 13:42 | 25.07071 | 121.23273 | 100 ft | 14 kts | 195° |
| 2026-05-06 13:42 | 25.07007 | 121.23206 | 100 ft | 12 kts | 230° |
| 2026-05-06 13:43 | 25.06952 | 121.23136 | 100 ft | 14 kts | 228° |
| 2026-05-06 13:43 | 25.06882 | 121.23048 | 100 ft | 15 kts | 230° |
| 2026-05-06 13:43 | 25.06813 | 121.22959 | 99 ft | 17 kts | 229° |
| 2026-05-06 13:43 | 25.06739 | 121.22867 | 99 ft | 15 kts | 229° |
| 2026-05-06 13:44 | 25.06674 | 121.22783 | 100 ft | 5 kts | 230° |
| 2026-05-06 13:44 | 25.06617 | 121.22712 | 100 ft | 20 kts | 229° |
| 2026-05-06 13:44 | 25.06521 | 121.22590 | 100 ft | 20 kts | 229° |
| 2026-05-06 13:44 | 25.06433 | 121.22480 | 100 ft | 18 kts | 229° |
| 2026-05-06 13:45 | 25.06355 | 121.22379 | 100 ft | 16 kts | 229° |
| 2026-05-06 13:45 | 25.06253 | 121.22253 | 100 ft | 20 kts | 219° |
| 2026-05-06 13:45 | 25.06161 | 121.22293 | 99 ft | 15 kts | 134° |
| 2026-05-06 13:46 | 25.06112 | 121.22393 | 98 ft | 16 kts | 62° |
| 2026-05-06 13:46 | 25.06193 | 121.22492 | 98 ft | 19 kts | 50° |
| 2026-05-06 13:46 | 25.06386 | 121.22744 | 94 ft | 85 kts | 48° |
| 2026-05-06 13:46 | 25.06919 | 121.23415 | 96 ft | 148 kts | 49° |
| 2026-05-06 13:47 | 25.07653 | 121.24342 | 759 ft | 158 kts | 50° |
| 2026-05-06 13:47 | 25.08377 | 121.25267 | 1631 ft | 167 kts | 52° |
| 2026-05-06 13:47 | 25.09176 | 121.26321 | 2271 ft | 191 kts | 52° |
| 2026-05-06 13:47 | 25.10074 | 121.27511 | 2896 ft | 214 kts | 52° |
| 2026-05-06 13:48 | 25.11093 | 121.28856 | 3633 ft | 241 kts | 49° |
| 2026-05-06 13:48 | 25.12501 | 121.29986 | 4419 ft | 267 kts | 16° |
| 2026-05-06 13:48 | 25.14369 | 121.30084 | 5162 ft | 275 kts | 344° |
| 2026-05-06 13:48 | 25.16221 | 121.29488 | 6027 ft | 279 kts | 340° |
| 2026-05-06 13:49 | 25.18100 | 121.28899 | 6870 ft | 284 kts | 345° |
| 2026-05-06 13:49 | 25.20081 | 121.28606 | 7707 ft | 290 kts | 353° |
| 2026-05-06 13:49 | 25.22112 | 121.28516 | 8540 ft | 294 kts | 356° |
| 2026-05-06 13:49 | 25.24176 | 121.28507 | 9382 ft | 298 kts | 357° |
| 2026-05-06 13:50 | 25.26263 | 121.28509 | 10142 ft | 304 kts | 356° |
| 2026-05-06 13:50 | 25.28457 | 121.28682 | 10386 ft | 331 kts | 12° |
| 2026-05-06 13:50 | 25.30602 | 121.29823 | 10583 ft | 359 kts | 37° |
| 2026-05-06 13:50 | 25.32502 | 121.31692 | 10740 ft | 380 kts | 42° |
| 2026-05-06 13:51 | 25.34461 | 121.33719 | 11236 ft | 388 kts | 43° |
| 2026-05-06 13:51 | 25.36438 | 121.35786 | 11859 ft | 393 kts | 43° |
| 2026-05-06 13:51 | 25.38437 | 121.37876 | 12456 ft | 397 kts | 42° |
| 2026-05-06 13:51 | 25.40452 | 121.39982 | 13122 ft | 399 kts | 42° |
| 2026-05-06 13:52 | 25.42477 | 121.42092 | 13790 ft | 400 kts | 43° |
| 2026-05-06 13:52 | 25.44513 | 121.44206 | 14308 ft | 403 kts | 42° |
| 2026-05-06 13:52 | 25.46574 | 121.46344 | 14788 ft | 407 kts | 42° |
| 2026-05-06 13:52 | 25.48651 | 121.48496 | 15285 ft | 410 kts | 42° |
| 2026-05-06 13:53 | 25.50743 | 121.50660 | 15743 ft | 414 kts | 41° |
| 2026-05-06 13:53 | 25.52833 | 121.52820 | 16207 ft | 417 kts | 41° |
| 2026-05-06 13:53 | 25.54959 | 121.55018 | 16695 ft | 420 kts | 41° |
| 2026-05-06 13:53 | 25.57099 | 121.57231 | 17151 ft | 423 kts | 41° |
| 2026-05-06 13:54 | 25.59257 | 121.59470 | 17599 ft | 426 kts | 41° |
| 2026-05-06 13:54 | 25.61454 | 121.61754 | 18058 ft | 430 kts | 41° |
| 2026-05-06 13:54 | 25.63611 | 121.63995 | 18467 ft | 433 kts | 41° |
| 2026-05-06 13:54 | 25.65819 | 121.66292 | 18858 ft | 435 kts | 41° |
| 2026-05-06 13:55 | 25.68031 | 121.68597 | 19256 ft | 438 kts | 41° |
| 2026-05-06 13:55 | 25.70260 | 121.70920 | 19654 ft | 440 kts | 41° |
| 2026-05-06 13:55 | 25.72498 | 121.73251 | 20056 ft | 443 kts | 41° |
| 2026-05-06 13:55 | 25.74748 | 121.75593 | 20450 ft | 445 kts | 41° |
| 2026-05-06 13:56 | 25.77012 | 121.77957 | 20831 ft | 448 kts | 41° |
| 2026-05-06 13:56 | 25.79291 | 121.80337 | 21224 ft | 451 kts | 41° |
| 2026-05-06 13:56 | 25.81681 | 121.82598 | 21649 ft | 450 kts | 34° |
| 2026-05-06 13:56 | 25.84221 | 121.84653 | 22049 ft | 452 kts | 34° |
| 2026-05-06 13:57 | 25.86778 | 121.86715 | 22444 ft | 454 kts | 34° |
| 2026-05-06 13:57 | 25.89308 | 121.88759 | 22812 ft | 457 kts | 34° |
| 2026-05-06 13:57 | 25.91917 | 121.90863 | 23182 ft | 459 kts | 34° |
| 2026-05-06 13:57 | 25.94476 | 121.92930 | 23536 ft | 461 kts | 34° |
| 2026-05-06 13:58 | 25.97081 | 121.95036 | 23831 ft | 464 kts | 34° |
| 2026-05-06 13:58 | 25.99695 | 121.97153 | 24114 ft | 466 kts | 34° |
| 2026-05-06 13:58 | 26.02326 | 121.99288 | 24402 ft | 469 kts | 34° |
| 2026-05-06 13:58 | 26.04970 | 122.01418 | 24691 ft | 471 kts | 33° |
| 2026-05-06 13:59 | 26.07646 | 122.03528 | 24979 ft | 473 kts | 33° |
| 2026-05-06 13:59 | 26.10357 | 122.05637 | 25263 ft | 475 kts | 32° |
| 2026-05-06 13:59 | 26.13082 | 122.07747 | 25550 ft | 477 kts | 32° |
| 2026-05-06 13:59 | 26.15810 | 122.09859 | 25857 ft | 478 kts | 32° |
| 2026-05-06 14:00 | 26.18540 | 122.11979 | 26142 ft | 480 kts | 32° |
| 2026-05-06 14:00 | 26.21282 | 122.14120 | 26409 ft | 483 kts | 32° |
| 2026-05-06 14:00 | 26.24015 | 122.16263 | 26676 ft | 485 kts | 32° |
| 2026-05-06 14:00 | 26.26744 | 122.18406 | 26937 ft | 487 kts | 32° |
| 2026-05-06 14:01 | 26.29529 | 122.20596 | 27203 ft | 489 kts | 32° |
| 2026-05-06 14:01 | 26.32309 | 122.22782 | 27462 ft | 491 kts | 32° |
| 2026-05-06 14:01 | 26.35110 | 122.24987 | 27719 ft | 493 kts | 32° |
| 2026-05-06 14:01 | 26.37917 | 122.27197 | 28019 ft | 494 kts | 32° |
| 2026-05-06 14:02 | 26.40731 | 122.29409 | 28406 ft | 493 kts | 31° |
| 2026-05-06 14:02 | 26.43540 | 122.31621 | 28773 ft | 493 kts | 31° |
| 2026-05-06 14:02 | 26.46308 | 122.33806 | 28992 ft | 493 kts | 31° |
| 2026-05-06 14:02 | 26.49105 | 122.36019 | 29041 ft | 492 kts | 31° |
| 2026-05-06 14:03 | 26.54697 | 122.40438 | 29038 ft | 490 kts | 31° |
| 2026-05-06 14:03 | 26.60266 | 122.44833 | 29051 ft | 490 kts | 31° |
| 2026-05-06 14:04 | 26.65843 | 122.49234 | 29039 ft | 490 kts | 31° |
| 2026-05-06 14:04 | 26.71397 | 122.53637 | 29040 ft | 490 kts | 31° |
| 2026-05-06 14:05 | 26.76955 | 122.58057 | 29025 ft | 490 kts | 31° |
| 2026-05-06 14:05 | 26.82482 | 122.62439 | 29036 ft | 489 kts | 31° |
| 2026-05-06 14:06 | 26.88039 | 122.66850 | 29036 ft | 488 kts | 31° |
| 2026-05-06 14:06 | 26.93573 | 122.71261 | 29029 ft | 488 kts | 31° |
| 2026-05-06 14:07 | 26.99102 | 122.75670 | 29034 ft | 487 kts | 31° |
| 2026-05-06 14:07 | 27.04634 | 122.80083 | 29028 ft | 487 kts | 31° |
| 2026-05-06 14:08 | 27.10154 | 122.84496 | 29030 ft | 487 kts | 31° |
| 2026-05-06 14:08 | 27.15682 | 122.88814 | 29027 ft | 484 kts | 26° |
| 2026-05-06 14:09 | 27.18710 | 122.90413 | 29033 ft | 477 kts | 15° |
| 2026-05-06 14:09 | 27.21891 | 122.91364 | 29034 ft | 470 kts | 5° |
| 2026-05-06 14:09 | 27.25120 | 122.91655 | 29045 ft | 463 kts | 354° |
| 2026-05-06 14:09 | 27.28305 | 122.91293 | 29049 ft | 457 kts | 345° |
| 2026-05-06 14:10 | 27.34292 | 122.89095 | 29037 ft | 452 kts | 336° |
| 2026-05-06 14:10 | 27.39578 | 122.85591 | 29033 ft | 441 kts | 313° |
| 2026-05-06 14:11 | 27.41535 | 122.82962 | 29027 ft | 438 kts | 301° |
| 2026-05-06 14:11 | 27.42924 | 122.79939 | 29026 ft | 436 kts | 290° |
| 2026-05-06 14:11 | 27.43699 | 122.76646 | 29026 ft | 435 kts | 278° |
| 2026-05-06 14:11 | 27.43851 | 122.73232 | 29025 ft | 436 kts | 271° |
| 2026-05-06 14:12 | 27.43860 | 122.66424 | 29026 ft | 437 kts | 271° |
| 2026-05-06 14:12 | 27.43868 | 122.59581 | 29030 ft | 437 kts | 270° |
| 2026-05-06 14:13 | 27.43877 | 122.52734 | 29032 ft | 437 kts | 270° |
| 2026-05-06 14:13 | 27.43883 | 122.45885 | 29036 ft | 437 kts | 270° |
| 2026-05-06 14:14 | 27.44423 | 122.39083 | 29034 ft | 437 kts | 281° |
| 2026-05-06 14:14 | 27.45617 | 122.32415 | 29035 ft | 437 kts | 281° |
| 2026-05-06 14:15 | 27.46793 | 122.25709 | 29040 ft | 436 kts | 281° |
| 2026-05-06 14:15 | 27.47968 | 122.19004 | 29043 ft | 436 kts | 281° |
| 2026-05-06 14:16 | 27.49134 | 122.12311 | 29041 ft | 435 kts | 280° |
| 2026-05-06 14:16 | 27.50293 | 122.05604 | 29047 ft | 435 kts | 280° |
| 2026-05-06 14:17 | 27.51258 | 122.00042 | 29044 ft | 434 kts | 280° |
| 2026-05-06 14:17 | 27.52413 | 121.93368 | 29042 ft | 434 kts | 280° |
| 2026-05-06 14:18 | 27.53745 | 121.85612 | 29034 ft | 434 kts | 280° |
| 2026-05-06 14:18 | 27.54700 | 121.80016 | 29033 ft | 434 kts | 280° |
| 2026-05-06 14:19 | 27.55832 | 121.73386 | 29035 ft | 434 kts | 280° |
| 2026-05-06 14:19 | 27.57000 | 121.66764 | 28999 ft | 433 kts | 279° |
| 2026-05-06 14:20 | 27.57574 | 121.63469 | 29135 ft | 424 kts | 279° |
| 2026-05-06 14:20 | 27.58084 | 121.60168 | 29092 ft | 430 kts | 279° |
| 2026-05-06 14:20 | 27.59200 | 121.53489 | 29046 ft | 435 kts | 280° |
| 2026-05-06 14:21 | 27.60409 | 121.46802 | 29047 ft | 435 kts | 281° |
| 2026-05-06 14:21 | 27.61627 | 121.40097 | 29051 ft | 435 kts | 280° |
| 2026-05-06 14:22 | 27.62810 | 121.33403 | 29049 ft | 435 kts | 280° |
| 2026-05-06 14:22 | 27.63980 | 121.26713 | 29042 ft | 435 kts | 280° |
| 2026-05-06 14:23 | 27.65142 | 121.20068 | 29039 ft | 435 kts | 280° |
| 2026-05-06 14:23 | 27.66310 | 121.13369 | 29028 ft | 435 kts | 280° |
| 2026-05-06 14:24 | 27.67480 | 121.06669 | 29032 ft | 436 kts | 280° |
| 2026-05-06 14:24 | 27.68651 | 120.99945 | 29037 ft | 436 kts | 280° |
| 2026-05-06 14:25 | 27.69817 | 120.93224 | 29034 ft | 436 kts | 280° |
| 2026-05-06 14:25 | 27.70980 | 120.86488 | 29032 ft | 437 kts | 280° |
| 2026-05-06 14:26 | 27.72139 | 120.79792 | 29034 ft | 437 kts | 279° |
| 2026-05-06 14:26 | 27.73309 | 120.73032 | 29051 ft | 438 kts | 282° |
| 2026-05-06 14:27 | 27.74406 | 120.69821 | 29050 ft | 442 kts | 297° |
| 2026-05-06 14:27 | 27.76295 | 120.67076 | 29055 ft | 449 kts | 313° |
| 2026-05-06 14:27 | 27.78874 | 120.65036 | 29055 ft | 458 kts | 330° |
| 2026-05-06 14:27 | 27.81936 | 120.63954 | 29054 ft | 469 kts | 348° |
| 2026-05-06 14:28 | 27.85230 | 120.63918 | 29051 ft | 479 kts | 360° |
| 2026-05-06 14:28 | 27.88560 | 120.64217 | 29040 ft | 480 kts | 0° |
| 2026-05-06 14:28 | 27.95230 | 120.64862 | 29050 ft | 480 kts | 0° |
| 2026-05-06 14:29 | 27.98556 | 120.65190 | 30085 ft | 480 kts | 2° |
| 2026-05-06 14:29 | 28.01846 | 120.65509 | 29044 ft | 481 kts | 0° |
| 2026-05-06 14:29 | 28.08515 | 120.66154 | 29060 ft | 481 kts | 0° |
| 2026-05-06 14:30 | 28.15204 | 120.66804 | 29064 ft | 482 kts | 0° |
| 2026-05-06 14:30 | 28.21882 | 120.67453 | 29063 ft | 482 kts | 0° |
| 2026-05-06 14:31 | 28.28575 | 120.68111 | 29064 ft | 482 kts | 0° |
| 2026-05-06 14:31 | 28.35217 | 120.68768 | 29076 ft | 482 kts | 0° |
| 2026-05-06 14:32 | 28.41901 | 120.69422 | 29078 ft | 482 kts | 0° |
| 2026-05-06 14:32 | 28.48589 | 120.70085 | 29075 ft | 483 kts | 0° |
| 2026-05-06 14:33 | 28.55278 | 120.70763 | 29070 ft | 483 kts | 0° |
| 2026-05-06 14:33 | 28.61966 | 120.71440 | 29080 ft | 483 kts | 0° |
| 2026-05-06 14:34 | 28.68584 | 120.72091 | 28970 ft | 477 kts | 0° |
| 2026-05-06 14:34 | 28.75170 | 120.72781 | 29014 ft | 474 kts | 1° |
| 2026-05-06 14:35 | 28.81743 | 120.73524 | 29016 ft | 475 kts | 1° |
| 2026-05-06 14:35 | 28.88327 | 120.74266 | 29006 ft | 475 kts | 1° |
| 2026-05-06 14:36 | 28.94913 | 120.74957 | 29022 ft | 475 kts | 0° |
| 2026-05-06 14:36 | 29.01503 | 120.75609 | 29002 ft | 475 kts | 0° |
| 2026-05-06 14:37 | 29.08069 | 120.76267 | 29013 ft | 475 kts | 0° |
| 2026-05-06 14:37 | 29.14661 | 120.76948 | 28999 ft | 476 kts | 1° |
| 2026-05-06 14:38 | 29.21277 | 120.77641 | 28992 ft | 476 kts | 1° |
| 2026-05-06 14:38 | 29.24541 | 120.77983 | 28785 ft | 475 kts | 1° |
| 2026-05-06 14:38 | 29.27807 | 120.78328 | 28374 ft | 467 kts | 1° |
| 2026-05-06 14:39 | 29.31038 | 120.78667 | 27978 ft | 465 kts | 1° |
| 2026-05-06 14:39 | 29.34262 | 120.79001 | 27578 ft | 465 kts | 1° |
| 2026-05-06 14:39 | 29.37485 | 120.79331 | 27180 ft | 466 kts | 1° |
| 2026-05-06 14:39 | 29.40708 | 120.79658 | 26776 ft | 467 kts | 1° |
| 2026-05-06 14:40 | 29.43946 | 120.79988 | 26398 ft | 468 kts | 1° |
| 2026-05-06 14:40 | 29.47193 | 120.80322 | 26015 ft | 469 kts | 1° |
| 2026-05-06 14:40 | 29.50455 | 120.80660 | 25642 ft | 470 kts | 1° |
| 2026-05-06 14:40 | 29.53713 | 120.81190 | 25262 ft | 475 kts | 9° |
| 2026-05-06 14:41 | 29.56870 | 120.82385 | 24905 ft | 482 kts | 20° |
| 2026-05-06 14:41 | 29.59825 | 120.84251 | 24533 ft | 488 kts | 32° |
| 2026-05-06 14:41 | 29.62428 | 120.86699 | 24177 ft | 492 kts | 43° |
| 2026-05-06 14:41 | 29.64641 | 120.89719 | 23820 ft | 496 kts | 53° |
| 2026-05-06 14:42 | 29.66612 | 120.92985 | 23454 ft | 497 kts | 54° |
| 2026-05-06 14:42 | 29.68535 | 120.96295 | 23032 ft | 495 kts | 55° |
| 2026-05-06 14:42 | 29.70399 | 120.99593 | 22629 ft | 490 kts | 56° |
| 2026-05-06 14:42 | 29.72236 | 121.02880 | 22217 ft | 487 kts | 56° |
| 2026-05-06 14:43 | 29.74044 | 121.06114 | 21837 ft | 484 kts | 56° |
| 2026-05-06 14:43 | 29.75871 | 121.09353 | 21438 ft | 482 kts | 56° |
| 2026-05-06 14:43 | 29.77726 | 121.12613 | 21049 ft | 479 kts | 55° |
| 2026-05-06 14:43 | 29.79530 | 121.15764 | 20672 ft | 476 kts | 55° |
| 2026-05-06 14:44 | 29.81349 | 121.18933 | 20292 ft | 474 kts | 55° |
| 2026-05-06 14:44 | 29.83164 | 121.22097 | 20010 ft | 471 kts | 55° |
| 2026-05-06 14:44 | 29.84966 | 121.25249 | 19918 ft | 471 kts | 55° |
| 2026-05-06 14:45 | 29.88805 | 121.31288 | 19593 ft | 465 kts | 45° |
| 2026-05-06 14:45 | 29.91154 | 121.33841 | 19427 ft | 462 kts | 37° |
| 2026-05-06 14:45 | 29.93725 | 121.36059 | 19272 ft | 460 kts | 32° |
| 2026-05-06 14:45 | 29.96469 | 121.37924 | 19108 ft | 457 kts | 26° |
| 2026-05-06 14:46 | 29.99279 | 121.39652 | 18952 ft | 456 kts | 25° |
| 2026-05-06 14:46 | 30.02056 | 121.41321 | 18794 ft | 455 kts | 25° |
| 2026-05-06 14:46 | 30.04859 | 121.43006 | 18631 ft | 454 kts | 25° |
| 2026-05-06 14:46 | 30.07642 | 121.44704 | 18474 ft | 453 kts | 26° |
| 2026-05-06 14:47 | 30.10404 | 121.46416 | 18324 ft | 452 kts | 26° |
| 2026-05-06 14:47 | 30.13086 | 121.48096 | 17865 ft | 451 kts | 26° |
| 2026-05-06 14:47 | 30.15811 | 121.49817 | 17433 ft | 448 kts | 26° |
| 2026-05-06 14:47 | 30.18534 | 121.51540 | 17004 ft | 445 kts | 27° |
| 2026-05-06 14:48 | 30.21227 | 121.53243 | 16591 ft | 441 kts | 27° |
| 2026-05-06 14:48 | 30.23862 | 121.54909 | 16182 ft | 438 kts | 27° |
| 2026-05-06 14:48 | 30.26525 | 121.56592 | 15774 ft | 435 kts | 27° |
| 2026-05-06 14:48 | 30.29163 | 121.58279 | 15365 ft | 431 kts | 27° |
| 2026-05-06 14:49 | 30.31760 | 121.59960 | 14967 ft | 428 kts | 28° |
| 2026-05-06 14:49 | 30.34360 | 121.61655 | 14575 ft | 427 kts | 28° |
| 2026-05-06 14:49 | 30.36922 | 121.63327 | 14198 ft | 427 kts | 28° |
| 2026-05-06 14:49 | 30.39510 | 121.65069 | 13808 ft | 424 kts | 29° |
| 2026-05-06 14:50 | 30.42022 | 121.66823 | 13373 ft | 419 kts | 30° |
| 2026-05-06 14:50 | 30.44475 | 121.68569 | 12949 ft | 418 kts | 30° |
| 2026-05-06 14:50 | 30.46932 | 121.70330 | 12525 ft | 411 kts | 30° |
| 2026-05-06 14:50 | 30.49345 | 121.72050 | 12106 ft | 401 kts | 30° |
| 2026-05-06 14:51 | 30.51686 | 121.73699 | 11690 ft | 391 kts | 30° |
| 2026-05-06 14:51 | 30.53978 | 121.75309 | 11308 ft | 382 kts | 28° |
| 2026-05-06 14:51 | 30.56396 | 121.76430 | 10920 ft | 369 kts | 11° |
| 2026-05-06 14:51 | 30.58852 | 121.76591 | 10676 ft | 339 kts | 351° |
| 2026-05-06 14:52 | 30.61034 | 121.75992 | 10572 ft | 309 kts | 339° |
| 2026-05-06 14:52 | 30.63014 | 121.75248 | 10380 ft | 289 kts | 339° |
| 2026-05-06 14:52 | 30.64896 | 121.74544 | 10198 ft | 284 kts | 339° |
| 2026-05-06 14:52 | 30.66728 | 121.73858 | 10007 ft | 281 kts | 339° |
| 2026-05-06 14:53 | 30.68582 | 121.73162 | 9819 ft | 279 kts | 339° |
| 2026-05-06 14:53 | 30.70411 | 121.72474 | 9614 ft | 272 kts | 339° |
| 2026-05-06 14:53 | 30.72200 | 121.71801 | 9392 ft | 268 kts | 339° |
| 2026-05-06 14:53 | 30.73944 | 121.71145 | 9207 ft | 266 kts | 339° |
| 2026-05-06 14:54 | 30.75712 | 121.70480 | 8985 ft | 265 kts | 339° |
| 2026-05-06 14:54 | 30.77468 | 121.69816 | 8785 ft | 265 kts | 339° |
| 2026-05-06 14:54 | 30.79220 | 121.69153 | 8589 ft | 265 kts | 339° |
| 2026-05-06 14:54 | 30.80976 | 121.68490 | 8363 ft | 264 kts | 339° |
| 2026-05-06 14:55 | 30.82722 | 121.67831 | 8136 ft | 263 kts | 339° |
| 2026-05-06 14:55 | 30.84461 | 121.67176 | 7888 ft | 263 kts | 339° |
| 2026-05-06 14:55 | 30.86116 | 121.66552 | 7655 ft | 262 kts | 339° |
| 2026-05-06 14:55 | 30.87852 | 121.65894 | 7418 ft | 262 kts | 339° |
| 2026-05-06 14:56 | 30.89591 | 121.65272 | 7178 ft | 262 kts | 346° |
| 2026-05-06 14:56 | 30.91344 | 121.65376 | 6949 ft | 265 kts | 18° |
| 2026-05-06 14:56 | 30.92854 | 121.66549 | 6713 ft | 266 kts | 50° |
| 2026-05-06 14:56 | 30.93655 | 121.68429 | 6488 ft | 266 kts | 74° |
| 2026-05-06 14:57 | 30.94169 | 121.70476 | 6251 ft | 266 kts | 79° |
| 2026-05-06 14:57 | 30.94123 | 121.72560 | 5993 ft | 262 kts | 109° |
| 2026-05-06 14:57 | 30.93232 | 121.74364 | 5747 ft | 257 kts | 138° |
| 2026-05-06 14:57 | 30.91739 | 121.75437 | 5514 ft | 252 kts | 163° |
| 2026-05-06 14:58 | 30.90127 | 121.76047 | 5275 ft | 253 kts | 165° |
| 2026-05-06 14:58 | 30.88469 | 121.76665 | 5037 ft | 253 kts | 164° |
| 2026-05-06 14:58 | 30.86799 | 121.77291 | 4796 ft | 252 kts | 165° |
| 2026-05-06 14:58 | 30.85128 | 121.77918 | 4543 ft | 251 kts | 165° |
| 2026-05-06 14:59 | 30.83571 | 121.78505 | 4300 ft | 249 kts | 163° |
| 2026-05-06 14:59 | 30.81948 | 121.79119 | 4071 ft | 244 kts | 163° |
| 2026-05-06 14:59 | 30.80348 | 121.79721 | 3818 ft | 238 kts | 164° |
| 2026-05-06 14:59 | 30.78838 | 121.80289 | 3575 ft | 232 kts | 164° |
| 2026-05-06 15:00 | 30.77333 | 121.80855 | 3337 ft | 228 kts | 164° |
| 2026-05-06 15:00 | 30.75830 | 121.81417 | 3108 ft | 224 kts | 164° |
| 2026-05-06 15:00 | 30.74499 | 121.82304 | 3008 ft | 225 kts | 137° |
| 2026-05-06 15:00 | 30.73736 | 121.83894 | 3005 ft | 232 kts | 104° |
| 2026-05-06 15:01 | 30.73820 | 121.85763 | 3020 ft | 231 kts | 71° |
| 2026-05-06 15:01 | 30.74446 | 121.87427 | 3022 ft | 222 kts | 71° |
| 2026-05-06 15:01 | 30.74948 | 121.89123 | 3025 ft | 222 kts | 76° |
| 2026-05-06 15:01 | 30.75441 | 121.90821 | 3023 ft | 222 kts | 65° |
| 2026-05-06 15:02 | 30.76485 | 121.92098 | 3022 ft | 224 kts | 27° |
| 2026-05-06 15:02 | 30.77966 | 121.92414 | 3013 ft | 213 kts | 349° |
| 2026-05-06 15:02 | 30.79316 | 121.91812 | 3016 ft | 206 kts | 332° |
| 2026-05-06 15:02 | 30.80651 | 121.91229 | 3018 ft | 204 kts | 340° |
| 2026-05-06 15:03 | 30.82015 | 121.90754 | 3017 ft | 203 kts | 342° |
| 2026-05-06 15:03 | 30.83370 | 121.90299 | 3015 ft | 204 kts | 341° |
| 2026-05-06 15:03 | 30.84750 | 121.89856 | 3022 ft | 206 kts | 341° |
| 2026-05-06 15:03 | 30.86075 | 121.89396 | 3018 ft | 205 kts | 339° |
| 2026-05-06 15:04 | 30.87415 | 121.88902 | 3024 ft | 204 kts | 340° |
| 2026-05-06 15:04 | 30.88296 | 121.88572 | 3020 ft | 203 kts | 340° |
| 2026-05-06 15:04 | 30.89618 | 121.88076 | 3016 ft | 205 kts | 339° |
| 2026-05-06 15:04 | 30.91391 | 121.87410 | 3022 ft | 202 kts | 340° |
| 2026-05-06 15:05 | 30.92746 | 121.86901 | 3022 ft | 208 kts | 339° |
| 2026-05-06 15:05 | 30.94088 | 121.86397 | 3024 ft | 194 kts | 339° |
| 2026-05-06 15:05 | 30.94913 | 121.86088 | 3012 ft | 184 kts | 339° |
| 2026-05-06 15:05 | 30.96445 | 121.85512 | 3006 ft | 170 kts | 339° |
| 2026-05-06 15:06 | 30.97172 | 121.85238 | 2989 ft | 168 kts | 339° |
| 2026-05-06 15:06 | 30.98279 | 121.84821 | 2865 ft | 166 kts | 340° |
| 2026-05-06 15:06 | 30.99377 | 121.84407 | 2672 ft | 167 kts | 340° |
| 2026-05-06 15:06 | 31.00491 | 121.83988 | 2465 ft | 169 kts | 340° |
| 2026-05-06 15:07 | 31.01584 | 121.83577 | 2284 ft | 161 kts | 341° |
| 2026-05-06 15:07 | 31.02621 | 121.83186 | 2049 ft | 158 kts | 340° |
| 2026-05-06 15:07 | 31.03654 | 121.82797 | 1845 ft | 157 kts | 340° |
| 2026-05-06 15:07 | 31.04688 | 121.82407 | 1635 ft | 156 kts | 340° |
| 2026-05-06 15:08 | 31.05716 | 121.82020 | 1425 ft | 154 kts | 341° |
| 2026-05-06 15:08 | 31.06727 | 121.81639 | 1230 ft | 154 kts | 341° |
| 2026-05-06 15:08 | 31.07741 | 121.81256 | 1013 ft | 155 kts | 341° |
| 2026-05-06 15:08 | 31.08761 | 121.80872 | 818 ft | 155 kts | 342° |
| 2026-05-06 15:09 | 31.09759 | 121.80493 | 646 ft | 151 kts | 343° |
| 2026-05-06 15:09 | 31.10746 | 121.80120 | 417 ft | 147 kts | 343° |
| 2026-05-06 15:09 | 31.11712 | 121.79755 | 246 ft | 145 kts | 340° |
| 2026-05-06 15:09 | 31.12610 | 121.79413 | 82 ft | 142 kts | 342° |
| 2026-05-06 15:10 | 31.13490 | 121.79089 | 25 ft | 112 kts | 342° |
| 2026-05-06 15:10 | 31.14050 | 121.78879 | 21 ft | 64 kts | 342° |
| 2026-05-06 15:10 | 31.14329 | 121.78772 | 22 ft | 29 kts | 342° |
| 2026-05-06 15:10 | 31.14470 | 121.78743 | 23 ft | 17 kts | 356° |
| 2026-05-06 15:11 | 31.14544 | 121.78746 | 23 ft | 10 kts | 8° |
| 2026-05-06 15:11 | 31.14608 | 121.78759 | 23 ft | 6 kts | 10° |
| 2026-05-06 15:11 | 31.14642 | 121.78766 | 20 ft | 1 kts | 10° |
| 2026-05-06 15:11 | 31.14650 | 121.78767 | 14 ft | 1 kts | 10° |
| 2026-05-06 15:12 | 31.14656 | 121.78769 | 19 ft | 2 kts | 10° |
| 2026-05-06 15:12 | 31.14668 | 121.78771 | 23 ft | 4 kts | 10° |
| 2026-05-06 15:12 | 31.14698 | 121.78777 | 23 ft | 4 kts | 10° |
| 2026-05-06 15:12 | 31.14715 | 121.78785 | 23 ft | 0 kts | 34° |
| 2026-05-06 15:13 | 31.14729 | 121.78826 | 23 ft | 13 kts | 68° |
| 2026-05-06 15:13 | 31.14752 | 121.78898 | 24 ft | 2 kts | 72° |
| 2026-05-06 15:13 | 31.14755 | 121.78909 | 24 ft | 1 kts | 72° |
| 2026-05-06 15:13 | 31.14756 | 121.78913 | 24 ft | 0 kts | 72° |
| 2026-05-06 15:14 | 31.14761 | 121.78931 | 26 ft | 8 kts | 72° |
| 2026-05-06 15:14 | 31.14779 | 121.78997 | 24 ft | 8 kts | 72° |
| 2026-05-06 15:14 | 31.14793 | 121.79049 | 26 ft | 6 kts | 72° |
| 2026-05-06 15:14 | 31.14810 | 121.79111 | 27 ft | 13 kts | 72° |
| 2026-05-06 15:15 | 31.14839 | 121.79215 | 26 ft | 15 kts | 72° |
| 2026-05-06 15:15 | 31.14873 | 121.79338 | 23 ft | 16 kts | 73° |
| 2026-05-06 15:15 | 31.14905 | 121.79452 | 25 ft | 11 kts | 71° |
| 2026-05-06 15:15 | 31.14926 | 121.79528 | 23 ft | 9 kts | 71° |
| 2026-05-06 15:16 | 31.14953 | 121.79587 | 23 ft | 8 kts | 34° |
| 2026-05-06 15:16 | 31.15000 | 121.79580 | 23 ft | 7 kts | 343° |
| 2026-05-06 15:16 | 31.15042 | 121.79563 | 23 ft | 6 kts | 341° |
| 2026-05-06 15:16 | 31.15080 | 121.79551 | 23 ft | 5 kts | 351° |
| 2026-05-06 15:17 | 31.15108 | 121.79564 | 23 ft | 4 kts | 52° |
| 2026-05-06 15:17 | 31.15118 | 121.79592 | 23 ft | 3 kts | 70° |
| 2026-05-06 15:17 | 31.15125 | 121.79616 | 23 ft | 3 kts | 71° |
| 2026-05-06 15:17 | 31.15130 | 121.79635 | 23 ft | 2 kts | 72° |
| 2026-05-06 15:18 | 31.15134 | 121.79650 | 23 ft | 2 kts | 72° |
| 2026-05-06 15:18 | 31.15135 | 121.79654 | 23 ft | 0 kts | 72° |